createdAt,value
2019-03-22T00:01:10.845Z,92.20
2019-03-22T00:03:38.828Z,93.00
2019-03-22T00:06:06.798Z,93.40
2019-03-22T00:08:34.777Z,93.60
2019-03-22T00:11:02.792Z,93.60
2019-03-22T00:13:30.745Z,93.70
2019-03-22T00:15:58.836Z,93.70
2019-03-22T00:18:26.809Z,93.70
2019-03-22T00:20:54.789Z,92.80
2019-03-22T00:23:22.753Z,93.00
2019-03-22T00:25:50.733Z,92.30
2019-03-22T00:28:18.768Z,92.20
2019-03-22T00:30:46.868Z,92.40
2019-03-22T00:33:14.940Z,93.10
2019-03-22T00:35:42.952Z,92.40
2019-03-22T00:38:10.953Z,92.50
2019-03-22T00:40:38.909Z,92.30
2019-03-22T00:43:06.949Z,92.20
2019-03-22T00:46:04.281Z,92.70
2019-03-22T00:48:32.267Z,92.40
2019-03-22T00:51:00.336Z,92.50
2019-03-22T00:53:28.405Z,92.60
2019-03-22T00:55:56.398Z,92.30
2019-03-22T00:58:24.450Z,93.40
2019-03-22T01:00:52.650Z,92.40
2019-03-22T01:03:20.633Z,92.20
2019-03-22T01:05:48.704Z,92.80
2019-03-22T01:08:16.776Z,93.10
2019-03-22T01:10:44.831Z,92.80
2019-03-22T01:13:13.042Z,92.10
2019-03-22T01:15:41.003Z,92.10
2019-03-22T01:18:08.971Z,92.30
2019-03-22T01:20:36.950Z,92.80
2019-03-22T01:23:04.920Z,92.30
2019-03-22T01:25:32.885Z,92.10
2019-03-22T01:28:00.861Z,92.00
2019-03-22T01:30:28.851Z,92.00
2019-03-22T01:32:56.829Z,91.80
2019-03-22T01:35:24.804Z,91.80
2019-03-22T01:37:52.906Z,91.70
2019-03-22T01:40:20.889Z,91.80
2019-03-22T01:42:48.877Z,92.00
2019-03-22T01:45:16.846Z,92.10
2019-03-22T01:47:44.832Z,92.30
2019-03-22T01:50:13.291Z,92.30
2019-03-22T01:52:41.245Z,93.00
2019-03-22T01:55:09.533Z,92.60
2019-03-22T01:57:37.484Z,92.70
2019-03-22T02:00:07.804Z,93.10
2019-03-22T02:02:35.757Z,94.60
2019-03-22T02:05:05.864Z,95.10
2019-03-22T02:07:33.976Z,95.50
2019-03-22T02:10:01.964Z,95.00
2019-03-22T02:12:29.954Z,94.80
2019-03-22T02:14:57.931Z,94.60
2019-03-22T02:17:25.885Z,94.50
2019-03-22T02:19:53.883Z,93.90
2019-03-22T02:22:21.944Z,93.60
2019-03-22T02:24:49.914Z,93.80
2019-03-22T02:27:17.992Z,92.80
2019-03-22T02:29:45.958Z,92.40
2019-03-22T02:32:13.828Z,92.40
2019-03-22T02:34:41.806Z,92.90
2019-03-22T02:37:09.868Z,92.60
2019-03-22T02:39:38.008Z,92.20
2019-03-22T02:42:06.116Z,92.20
2019-03-22T02:44:34.188Z,92.30
2019-03-22T02:47:02.374Z,92.50
2019-03-22T02:49:30.345Z,93.10
2019-03-22T02:51:58.438Z,93.00
2019-03-22T02:54:26.402Z,94.10
2019-03-22T02:56:54.389Z,93.20
2019-03-22T02:59:22.336Z,92.50
2019-03-22T03:01:50.369Z,92.50
2019-03-22T03:04:18.540Z,92.50
2019-03-22T03:06:46.503Z,92.40
2019-03-22T03:09:14.544Z,92.50
2019-03-22T03:11:42.513Z,92.70
2019-03-22T03:14:10.464Z,92.80
2019-03-22T03:16:38.453Z,92.70
2019-03-22T03:19:06.425Z,93.10
2019-03-22T03:21:34.413Z,93.50
2019-03-22T03:24:02.485Z,94.00
2019-03-22T03:26:30.442Z,94.30
2019-03-22T03:28:58.416Z,94.30
2019-03-22T03:31:26.505Z,94.60
2019-03-22T03:33:54.465Z,94.60
2019-03-22T03:36:22.647Z,94.60
2019-03-22T03:38:50.620Z,94.50
2019-03-22T03:41:18.719Z,94.70
2019-03-22T03:43:46.718Z,94.60
2019-03-22T03:46:14.685Z,94.30
2019-03-22T03:48:42.661Z,94.10
2019-03-22T03:51:10.650Z,94.00
2019-03-22T03:53:38.710Z,93.80
2019-03-22T03:56:07.111Z,93.90
2019-03-22T03:58:35.198Z,94.10
2019-03-22T04:01:03.149Z,93.80
2019-03-22T04:03:31.221Z,93.60
2019-03-22T04:05:59.409Z,93.60
2019-03-22T04:08:27.357Z,93.70
2019-03-22T04:10:55.329Z,93.80
2019-03-22T04:13:23.309Z,94.00
2019-03-22T04:15:51.396Z,93.90
2019-03-22T04:18:19.564Z,93.90
2019-03-22T04:20:47.536Z,93.90
2019-03-22T04:23:15.717Z,94.00
2019-03-22T04:25:43.865Z,94.40
2019-03-22T04:28:11.847Z,94.70
2019-03-22T04:30:39.810Z,95.00
2019-03-22T04:33:07.753Z,94.90
2019-03-22T04:35:35.856Z,94.80
2019-03-22T04:38:03.856Z,94.80
2019-03-22T04:40:31.818Z,94.80
2019-03-22T04:42:59.930Z,94.70
2019-03-22T04:45:30.500Z,94.90
2019-03-22T04:48:06.909Z,95.00
2019-03-22T04:50:39.024Z,95.20
2019-03-22T04:53:12.354Z,95.30
2019-03-22T04:55:43.763Z,95.50
2019-03-22T04:58:12.984Z,95.70
2019-03-22T05:00:41.636Z,95.70
2019-03-22T05:03:11.230Z,95.70
2019-03-22T05:05:39.898Z,95.60
2019-03-22T05:08:09.051Z,95.50
2019-03-22T05:10:37.508Z,95.60
2019-03-22T05:13:07.502Z,95.50
2019-03-22T05:15:36.768Z,95.60
2019-03-22T05:18:04.996Z,95.50
2019-03-22T05:20:34.795Z,95.70
2019-03-22T05:23:04.143Z,95.60
2019-03-22T05:25:34.240Z,95.30
2019-03-22T05:28:03.978Z,95.50
2019-03-22T05:31:17.924Z,95.30
2019-03-22T05:33:45.893Z,95.40
2019-03-22T05:36:13.881Z,95.40
2019-03-22T05:38:41.857Z,95.80
2019-03-22T05:41:09.853Z,95.70
2019-03-22T05:43:37.888Z,95.90
2019-03-22T05:46:05.801Z,96.10
2019-03-22T05:48:33.779Z,96.00
2019-03-22T05:51:01.906Z,96.20
2019-03-22T05:53:29.848Z,96.50
2019-03-22T05:55:57.838Z,96.20
2019-03-22T05:58:25.814Z,96.40
2019-03-22T06:00:53.779Z,96.10
2019-03-22T06:03:21.735Z,96.00
2019-03-22T06:05:49.820Z,96.30
2019-03-22T06:08:17.789Z,96.30
2019-03-22T06:10:45.758Z,96.40
2019-03-22T06:13:13.761Z,96.50
2019-03-22T06:15:41.828Z,96.20
2019-03-22T06:18:09.808Z,96.20
2019-03-22T06:20:37.979Z,96.10
2019-03-22T06:23:06.036Z,96.10
2019-03-22T06:25:34.109Z,96.00
2019-03-22T06:28:02.570Z,96.20
2019-03-22T06:30:30.596Z,96.00
2019-03-22T06:32:58.609Z,96.20
2019-03-22T06:35:26.560Z,96.00
2019-03-22T06:37:54.441Z,96.20
2019-03-22T06:40:22.440Z,96.10
2019-03-22T06:42:50.513Z,96.00
2019-03-22T06:45:18.735Z,95.60
2019-03-22T06:47:46.703Z,95.70
2019-03-22T06:50:14.687Z,95.70
2019-03-22T06:52:42.726Z,95.70
2019-03-22T06:55:10.767Z,95.30
2019-03-22T06:57:43.217Z,95.10
2019-03-22T07:00:08.810Z,95.10
2019-03-22T07:02:36.847Z,95.10
2019-03-22T07:05:05.228Z,95.40
2019-03-22T07:07:33.213Z,95.30
2019-03-22T07:10:01.191Z,95.10
2019-03-22T07:12:29.319Z,95.10
2019-03-22T07:14:57.315Z,94.80
2019-03-22T07:17:25.405Z,95.20
2019-03-22T07:19:53.368Z,95.00
2019-03-22T07:22:21.429Z,95.40
2019-03-22T07:24:49.472Z,94.90
2019-03-22T07:27:17.652Z,94.80
2019-03-22T07:29:45.708Z,94.60
2019-03-22T07:32:13.695Z,94.80
2019-03-22T07:34:41.747Z,94.30
2019-03-22T07:37:09.736Z,94.10
2019-03-22T07:39:37.797Z,94.30
2019-03-22T07:42:05.796Z,94.40
2019-03-22T07:44:33.817Z,94.10
2019-03-22T07:47:01.789Z,93.90
2019-03-22T07:49:29.845Z,93.70
2019-03-22T07:51:57.820Z,93.80
2019-03-22T07:54:25.774Z,93.90
2019-03-22T07:56:53.756Z,93.50
2019-03-22T07:59:21.708Z,93.50
2019-03-22T08:01:49.787Z,93.00
2019-03-22T08:04:17.811Z,93.40
2019-03-22T08:06:45.786Z,93.30
2019-03-22T08:09:13.754Z,93.40
2019-03-22T08:11:41.725Z,93.40
2019-03-22T08:14:09.715Z,93.50
2019-03-22T08:16:37.863Z,93.60
2019-03-22T08:19:06.037Z,93.40
2019-03-22T08:21:33.946Z,93.30
2019-03-22T08:24:01.985Z,93.20
2019-03-22T08:26:29.972Z,93.10
2019-03-22T08:28:57.947Z,92.90
2019-03-22T08:31:25.938Z,92.60
2019-03-22T08:33:53.825Z,92.00
2019-03-22T08:36:21.914Z,91.80
2019-03-22T08:38:49.940Z,91.50
2019-03-22T08:41:17.997Z,91.60
2019-03-22T08:43:46.045Z,91.30
2019-03-22T08:46:14.038Z,91.00
2019-03-22T08:48:41.992Z,91.30
2019-03-22T08:51:09.986Z,90.90
2019-03-22T08:53:37.968Z,91.30
2019-03-22T08:56:05.911Z,91.50
2019-03-22T08:58:33.899Z,91.70
2019-03-22T09:01:01.959Z,92.30
2019-03-22T09:03:29.915Z,91.60
2019-03-22T09:05:57.881Z,91.50
2019-03-22T09:08:25.998Z,92.10
2019-03-22T09:10:54.067Z,91.60
2019-03-22T09:13:22.006Z,91.40
2019-03-22T09:15:50.091Z,90.70
2019-03-22T09:18:18.144Z,90.10
2019-03-22T09:20:46.121Z,88.50
2019-03-22T09:23:14.716Z,88.70
2019-03-22T09:25:42.807Z,88.70
2019-03-22T09:28:11.194Z,88.60
2019-03-22T09:30:39.415Z,87.30
2019-03-22T09:33:07.785Z,86.20
2019-03-22T09:35:36.464Z,85.90
2019-03-22T09:38:12.936Z,85.30
2019-03-22T09:40:34.205Z,86.30
2019-03-22T09:43:02.134Z,85.50
2019-03-22T09:45:30.313Z,85.40
2019-03-22T09:47:58.280Z,85.70
2019-03-22T09:50:26.279Z,84.80
2019-03-22T09:52:54.242Z,85.30
2019-03-22T09:55:22.224Z,84.60
2019-03-22T09:57:50.281Z,84.20
2019-03-22T10:00:30.634Z,83.10
2019-03-22T10:02:58.841Z,82.30
2019-03-22T10:05:26.796Z,82.60
2019-03-22T10:07:54.876Z,83.50
2019-03-22T10:10:22.949Z,83.40
2019-03-22T10:12:50.972Z,81.80
2019-03-22T10:15:19.014Z,81.50
2019-03-22T10:17:46.992Z,81.30
2019-03-22T10:20:15.106Z,81.20
2019-03-22T10:22:43.101Z,80.50
2019-03-22T10:25:11.168Z,81.40
2019-03-22T10:27:39.129Z,81.90
2019-03-22T10:30:07.769Z,82.10
2019-03-22T10:32:35.871Z,81.20
2019-03-22T10:35:04.004Z,81.00
2019-03-22T10:37:31.963Z,81.90
2019-03-22T10:39:59.944Z,82.30
2019-03-22T10:42:27.935Z,79.80
2019-03-22T10:44:55.828Z,79.10
2019-03-22T10:47:23.848Z,79.10
2019-03-22T10:49:51.839Z,79.00
2019-03-22T10:52:19.858Z,78.80
2019-03-22T10:54:47.944Z,76.70
2019-03-22T10:57:15.897Z,76.30
2019-03-22T10:59:43.987Z,77.90
2019-03-22T11:02:11.965Z,76.30
2019-03-22T11:04:39.818Z,75.90
2019-03-22T11:07:07.789Z,76.10
2019-03-22T11:09:35.788Z,72.00
2019-03-22T11:12:11.906Z,72.00
2019-03-22T11:14:33.568Z,71.70
2019-03-22T11:17:01.542Z,70.50
2019-03-22T11:19:29.507Z,66.50
2019-03-22T11:21:57.478Z,65.80
2019-03-22T11:24:25.463Z,68.10
2019-03-22T11:26:53.425Z,68.90
2019-03-22T11:29:21.389Z,66.70
2019-03-22T11:31:49.500Z,66.10
2019-03-22T11:34:17.524Z,64.00
2019-03-22T11:36:45.408Z,66.30
2019-03-22T11:39:15.749Z,65.10
2019-03-22T11:41:43.695Z,66.20
2019-03-22T11:44:11.637Z,62.70
2019-03-22T11:46:39.723Z,62.20
2019-03-22T11:49:07.677Z,61.90
2019-03-22T11:51:35.656Z,62.70
2019-03-22T11:54:03.833Z,62.60
2019-03-22T11:56:31.804Z,62.10
2019-03-22T11:58:59.791Z,60.80
2019-03-22T12:01:27.776Z,58.70
2019-03-22T12:03:55.858Z,59.40
2019-03-22T12:06:23.856Z,59.90
2019-03-22T12:08:51.833Z,58.40
2019-03-22T12:11:19.805Z,58.90
2019-03-22T12:13:47.938Z,57.70
2019-03-22T12:16:15.993Z,56.80
2019-03-22T12:18:44.117Z,56.00
2019-03-22T12:21:12.180Z,54.80
2019-03-22T12:23:40.154Z,53.60
2019-03-22T12:26:08.239Z,55.40
2019-03-22T12:28:36.211Z,53.50
2019-03-22T12:31:04.173Z,55.60
2019-03-22T12:33:32.036Z,54.10
2019-03-22T12:35:59.855Z,53.60
2019-03-22T12:38:27.788Z,53.00
2019-03-22T12:40:55.650Z,53.50
2019-03-22T12:43:23.455Z,55.00
2019-03-22T12:45:51.292Z,50.80
2019-03-22T12:48:19.316Z,53.70
2019-03-22T12:50:47.259Z,55.60
2019-03-22T12:53:15.427Z,54.00
2019-03-22T12:55:43.420Z,52.20
2019-03-22T12:58:11.376Z,51.00
2019-03-22T13:00:39.452Z,48.80
2019-03-22T13:03:07.442Z,46.80
2019-03-22T13:05:35.420Z,47.90
2019-03-22T13:08:03.522Z,45.90
2019-03-22T13:10:31.584Z,45.00
2019-03-22T13:12:59.456Z,42.90
2019-03-22T13:15:27.473Z,44.20
2019-03-22T13:17:55.438Z,43.50
2019-03-22T13:20:23.540Z,41.70
2019-03-22T13:22:51.401Z,41.20
2019-03-22T13:25:21.202Z,41.50
2019-03-22T13:27:49.534Z,39.80
2019-03-22T13:30:31.490Z,39.50
2019-03-22T13:32:59.589Z,38.60
2019-03-22T13:35:27.561Z,35.80
2019-03-22T13:37:55.549Z,37.10
2019-03-22T13:40:23.527Z,36.00
2019-03-22T13:42:51.600Z,38.70
2019-03-22T13:45:19.618Z,37.30
2019-03-22T13:47:47.632Z,35.40
2019-03-22T13:50:15.737Z,35.40
2019-03-22T13:52:43.741Z,34.90
2019-03-22T13:55:11.693Z,40.80
2019-03-22T13:57:39.656Z,43.80
2019-03-22T14:00:08.090Z,48.20
2019-03-22T14:02:36.127Z,47.50
2019-03-22T14:05:05.894Z,47.40
2019-03-22T14:07:33.884Z,47.70
2019-03-22T14:10:01.876Z,47.00
2019-03-22T14:12:36.978Z,48.90
2019-03-22T14:14:59.630Z,50.70
2019-03-22T14:17:27.596Z,49.30
2019-03-22T14:19:55.744Z,48.20
2019-03-22T14:22:23.672Z,51.90
2019-03-22T14:24:51.637Z,43.30
2019-03-22T14:27:19.722Z,40.00
2019-03-22T14:29:47.777Z,48.90
2019-03-22T14:32:15.889Z,48.20
2019-03-22T14:34:43.959Z,41.00
2019-03-22T14:37:12.033Z,38.10
2019-03-22T14:39:40.116Z,37.20
2019-03-22T14:42:09.991Z,36.70
2019-03-22T14:44:38.047Z,36.00
2019-03-22T14:47:06.026Z,34.10
2019-03-22T14:49:33.984Z,34.20
2019-03-22T14:52:01.960Z,36.10
2019-03-22T14:54:29.936Z,36.10
2019-03-22T14:56:57.806Z,36.20
2019-03-22T14:59:25.773Z,37.40
2019-03-22T15:01:53.753Z,37.10
2019-03-22T15:04:21.834Z,37.80
2019-03-22T15:06:49.850Z,39.40
2019-03-22T15:09:17.922Z,39.40
2019-03-22T15:11:45.875Z,38.90
2019-03-22T15:14:39.276Z,38.80
2019-03-22T15:17:21.352Z,39.00
2019-03-22T15:20:14.976Z,40.00
2019-03-22T15:23:00.437Z,40.90
2019-03-22T15:26:00.236Z,40.40
2019-03-22T15:28:53.595Z,41.30
2019-03-22T15:31:42.592Z,41.20
2019-03-22T15:34:28.843Z,41.60
2019-03-22T15:37:09.069Z,40.70
2019-03-22T15:39:52.681Z,42.50
2019-03-22T15:42:20.648Z,42.30
2019-03-22T15:44:48.735Z,44.60
2019-03-22T15:47:16.696Z,45.70
2019-03-22T15:49:44.660Z,43.10
2019-03-22T15:52:12.646Z,43.90
2019-03-22T15:54:40.703Z,45.90
2019-03-22T15:57:08.703Z,45.10
2019-03-22T15:59:36.707Z,46.40
2019-03-22T16:02:04.666Z,46.70
2019-03-22T16:04:32.645Z,46.00
2019-03-22T16:07:00.624Z,46.50
2019-03-22T16:09:28.704Z,46.20
2019-03-22T16:11:56.664Z,45.90
2019-03-22T16:14:24.636Z,45.10
2019-03-22T16:16:52.728Z,44.80
2019-03-22T16:19:20.729Z,44.50
2019-03-22T16:21:48.718Z,45.70
2019-03-22T16:24:16.692Z,45.60
2019-03-22T16:26:44.666Z,47.00
2019-03-22T16:29:12.628Z,47.10
2019-03-22T16:31:40.615Z,47.90
2019-03-22T16:34:08.803Z,47.90
2019-03-22T16:36:36.892Z,47.90
2019-03-22T16:39:07.444Z,47.60
2019-03-22T16:41:35.438Z,47.60
2019-03-22T16:44:03.510Z,47.80
2019-03-22T16:46:31.496Z,47.00
2019-03-22T16:48:59.581Z,46.90
2019-03-22T16:51:27.557Z,46.30
2019-03-22T16:53:55.543Z,44.90
2019-03-22T16:56:23.517Z,46.40
2019-03-22T16:58:51.484Z,45.90
2019-03-22T17:01:19.592Z,45.80
2019-03-22T17:03:47.612Z,45.50
2019-03-22T17:06:15.550Z,46.00
2019-03-22T17:08:43.642Z,45.90
2019-03-22T17:11:11.605Z,46.40
2019-03-22T17:13:39.779Z,45.50
2019-03-22T17:16:07.981Z,45.20
2019-03-22T17:18:36.053Z,46.40
2019-03-22T17:21:04.053Z,45.20
2019-03-22T17:23:32.072Z,46.00
2019-03-22T17:26:00.037Z,46.30
2019-03-22T17:28:28.088Z,47.70
2019-03-22T17:30:56.060Z,47.10
2019-03-22T17:33:24.013Z,47.80
2019-03-22T17:35:52.017Z,47.90
2019-03-22T17:38:20.058Z,49.10
2019-03-22T17:40:48.217Z,49.20
2019-03-22T17:43:16.229Z,48.50
2019-03-22T17:45:44.196Z,49.50
2019-03-22T17:48:12.767Z,49.20
2019-03-22T17:50:40.817Z,49.70
2019-03-22T17:53:08.837Z,52.30
2019-03-22T17:55:37.162Z,51.40
2019-03-22T17:58:05.361Z,52.10
2019-03-22T18:00:33.425Z,52.30
2019-03-22T18:03:02.527Z,52.70
2019-03-22T18:05:30.504Z,53.90
2019-03-22T18:07:58.488Z,54.50
2019-03-22T18:10:26.733Z,55.50
2019-03-22T18:12:54.625Z,55.90
2019-03-22T18:15:22.625Z,56.10
2019-03-22T18:17:50.696Z,56.60
2019-03-22T18:20:18.815Z,57.40
2019-03-22T18:22:46.888Z,57.70
2019-03-22T18:25:15.810Z,58.00
2019-03-22T18:27:43.923Z,58.60
2019-03-22T18:30:12.265Z,59.10
2019-03-22T18:32:40.325Z,60.20
2019-03-22T18:35:08.801Z,60.00
2019-03-22T18:37:36.916Z,60.10
2019-03-22T18:40:05.224Z,61.80
2019-03-22T18:42:33.274Z,62.10
2019-03-22T18:45:01.366Z,61.80
2019-03-22T18:47:29.363Z,62.20
2019-03-22T18:49:57.298Z,62.70
2019-03-22T18:52:25.283Z,63.80
2019-03-22T18:54:53.415Z,64.50
2019-03-22T18:57:21.369Z,64.20
2019-03-22T18:59:49.489Z,64.50
2019-03-22T19:02:17.558Z,64.70
2019-03-22T19:04:45.676Z,68.20
2019-03-22T19:07:13.753Z,71.20
2019-03-22T19:09:41.809Z,72.60
2019-03-22T19:12:10.012Z,73.50
2019-03-22T19:14:38.104Z,74.60
2019-03-22T19:17:06.044Z,75.40
2019-03-22T19:19:34.016Z,75.70
2019-03-22T19:22:01.957Z,76.30
2019-03-22T19:24:29.924Z,77.30
2019-03-22T19:26:57.907Z,77.80
2019-03-22T19:29:25.990Z,78.60
2019-03-22T19:31:54.072Z,79.20
2019-03-22T19:34:22.047Z,79.80
2019-03-22T19:36:50.197Z,80.20
2019-03-22T19:39:18.267Z,80.70
2019-03-22T19:41:46.267Z,81.60
2019-03-22T19:44:14.288Z,82.40
2019-03-22T19:46:42.248Z,82.90
2019-03-22T19:49:10.220Z,83.10
2019-03-22T19:51:38.196Z,83.70
2019-03-22T19:54:06.268Z,84.10
2019-03-22T19:56:34.376Z,84.60
2019-03-22T19:59:02.465Z,85.10
2019-03-22T20:01:30.440Z,85.30
2019-03-22T20:03:58.524Z,85.90
2019-03-22T20:06:26.476Z,86.30
2019-03-22T20:08:54.676Z,86.60
2019-03-22T20:11:22.689Z,86.90
2019-03-22T20:13:50.720Z,87.10
2019-03-22T20:16:18.767Z,87.30
2019-03-22T20:18:46.749Z,87.10
2019-03-22T20:21:15.640Z,87.30
2019-03-22T20:23:53.321Z,87.30
2019-03-22T20:26:14.508Z,87.70
2019-03-22T20:28:42.983Z,87.80
2019-03-22T20:31:11.899Z,88.10
2019-03-22T20:33:40.421Z,88.00
2019-03-22T20:36:08.794Z,88.60
2019-03-22T20:38:37.307Z,88.50
2019-03-22T20:41:06.152Z,90.20
2019-03-22T20:43:34.757Z,90.30
2019-03-22T20:46:03.013Z,90.60
2019-03-22T20:48:30.967Z,90.70
2019-03-22T20:50:58.972Z,90.80
2019-03-22T20:53:27.083Z,90.80
2019-03-22T20:55:55.066Z,90.80
2019-03-22T20:58:23.077Z,90.90
2019-03-22T21:00:51.056Z,91.00
2019-03-22T21:03:19.263Z,90.90
2019-03-22T21:05:48.357Z,91.00
2019-03-22T21:08:16.463Z,91.10
2019-03-22T21:10:44.472Z,91.20
2019-03-22T21:13:12.414Z,91.30
2019-03-22T21:15:40.540Z,91.30
2019-03-22T21:18:08.517Z,91.30
2019-03-22T21:20:37.800Z,91.30
2019-03-22T21:23:05.890Z,91.40
2019-03-22T21:25:34.557Z,91.50
2019-03-22T21:28:03.892Z,91.40
2019-03-22T21:30:32.411Z,91.30
2019-03-22T21:33:00.485Z,91.40
2019-03-22T21:35:36.922Z,91.50
2019-03-22T21:38:10.140Z,91.60
2019-03-22T21:40:29.306Z,91.90
2019-03-22T21:42:57.286Z,92.20
2019-03-22T21:45:25.274Z,92.30
2019-03-22T21:47:53.261Z,92.50
2019-03-22T21:50:21.246Z,92.40
2019-03-22T21:52:49.419Z,92.60
2019-03-22T21:55:17.408Z,92.90
2019-03-22T21:57:45.276Z,93.00
2019-03-22T22:00:14.280Z,93.20
2019-03-22T22:02:42.285Z,93.30
2019-03-22T22:05:10.593Z,93.60
2019-03-22T22:07:38.785Z,93.20
2019-03-22T22:10:07.541Z,93.40
2019-03-22T22:12:35.510Z,93.40
2019-03-22T22:15:04.005Z,93.40
2019-03-22T22:17:32.001Z,93.40
2019-03-22T22:20:00.060Z,93.30
2019-03-22T22:22:28.151Z,93.40
2019-03-22T22:24:56.137Z,93.20
2019-03-22T22:27:24.205Z,93.30
2019-03-22T22:29:52.275Z,93.20
2019-03-22T22:32:20.860Z,93.50
2019-03-22T22:34:48.813Z,93.30
2019-03-22T22:37:16.885Z,93.40
2019-03-22T22:39:44.878Z,93.40
2019-03-22T22:42:12.847Z,93.40
2019-03-22T22:44:40.910Z,93.30
2019-03-22T22:47:08.913Z,93.50
2019-03-22T22:49:36.882Z,93.30
2019-03-22T22:52:04.853Z,93.30
2019-03-22T22:54:32.725Z,93.60
2019-03-22T22:57:00.725Z,93.80
2019-03-22T22:59:28.589Z,93.50
2019-03-22T23:01:56.569Z,93.70
2019-03-22T23:04:24.535Z,93.70
2019-03-22T23:06:52.523Z,93.90
2019-03-22T23:09:20.590Z,94.00
2019-03-22T23:11:48.604Z,93.80
2019-03-22T23:14:16.603Z,93.80
2019-03-22T23:16:44.559Z,93.80
2019-03-22T23:19:12.533Z,93.90
2019-03-22T23:21:40.559Z,94.00
2019-03-22T23:24:08.547Z,94.20
2019-03-22T23:26:36.620Z,94.10
2019-03-22T23:29:04.604Z,94.10
2019-03-22T23:31:32.602Z,94.00
2019-03-22T23:34:00.571Z,93.60
2019-03-22T23:36:28.623Z,93.50
2019-03-22T23:38:56.611Z,93.40
2019-03-22T23:41:24.583Z,93.60
2019-03-22T23:43:53.339Z,93.50
2019-03-22T23:46:21.284Z,93.40
2019-03-22T23:48:49.456Z,93.10
2019-03-22T23:51:17.436Z,93.10
2019-03-22T23:53:45.395Z,92.90
2019-03-22T23:56:13.465Z,92.80
2019-03-22T23:58:41.523Z,92.50
